Time;durP1;ratioP1;P1;durP2;ratioP2;P2;SDS_P1;SDS_P2;PMS_P1;PMS_P2;Temp;Humidity;BMP_temperature;BMP_pressure;BME280_temperature;BME280_humidity;BME280_pressure;Samples;Min_cycle;Max_cycle;Signal;HPM_P1;HPM_P2
2020/12/06 06:02:08;;;;;;;1999.90;999.90;;;10.00;99.90;;;;;;5167382;23;20246;-80
2020/12/06 06:04:39;;;;;;;1999.90;999.90;;;9.20;99.90;;;;;;4970465;28;20257;-81
2020/12/06 06:07:12;;;;;;;1999.90;999.90;;;9.20;99.90;;;;;;4976222;28;20213;-80
2020/12/06 06:09:42;;;;;;;1999.90;999.90;;;9.20;99.90;;;;;;4977936;28;20691;-79
2020/12/06 06:12:28;;;;;;;1999.90;999.90;;;9.20;99.90;;;;;;4979048;28;20687;-79
2020/12/06 06:14:58;;;;;;;1999.90;999.90;;;9.30;99.90;;;;;;4976551;28;20229;-80
2020/12/06 06:17:26;;;;;;;1999.90;999.90;;;9.30;99.90;;;;;;4972238;28;20224;-80
2020/12/06 06:19:53;;;;;;;1999.90;999.90;;;9.40;99.90;;;;;;4978324;28;20211;-80
2020/12/06 06:22:28;;;;;;;1999.90;999.90;;;9.40;99.90;;;;;;4977237;28;20647;-80
2020/12/06 06:24:57;;;;;;;1999.90;999.90;;;9.40;99.90;;;;;;4978090;28;20653;-79
2020/12/06 06:27:24;;;;;;;1999.90;999.90;;;9.40;99.90;;;;;;4977554;28;20204;-80
2020/12/06 06:29:51;;;;;;;1999.90;999.90;;;9.40;99.90;;;;;;4977799;28;20208;-80
2020/12/06 06:32:20;;;;;;;1999.90;999.90;;;9.50;99.90;;;;;;4978257;28;20303;-79
2020/12/06 06:34:48;;;;;;;1999.90;999.90;;;9.50;99.90;;;;;;4978052;28;20224;-79
2020/12/06 06:37:17;;;;;;;1999.90;999.90;;;9.50;99.90;;;;;;4977138;28;20231;-80
2020/12/06 06:39:44;;;;;;;1999.90;999.90;;;9.50;99.90;;;;;;4978093;28;20213;-80
2020/12/06 06:42:13;;;;;;;1999.90;999.90;;;9.50;99.90;;;;;;4979080;28;20279;-79
2020/12/06 06:44:41;;;;;;;1999.90;999.90;;;9.60;99.90;;;;;;4978127;28;20201;-80
2020/12/06 06:47:10;;;;;;;1999.90;999.90;;;9.60;99.90;;;;;;4977151;28;20280;-79
2020/12/06 06:49:54;;;;;;;1999.90;999.90;;;9.60;99.90;;;;;;4974422;28;20630;-76
2020/12/06 06:52:23;;;;;;;1999.90;999.90;;;9.60;99.90;;;;;;4974330;28;20630;-78
2020/12/06 06:54:52;;;;;;;1999.90;999.90;;;9.70;99.90;;;;;;4975121;28;20231;-80
2020/12/06 06:57:20;;;;;;;1999.90;999.90;;;9.70;99.90;;;;;;4974425;28;20266;-76
2020/12/06 06:59:48;;;;;;;1999.90;999.90;;;9.70;99.90;;;;;;4972264;28;20282;-77
2020/12/06 07:02:30;;;;;;;1999.90;999.90;;;9.70;99.90;;;;;;4972530;28;20233;-77
2020/12/06 07:04:58;;;;;;;1999.90;999.90;;;9.70;99.90;;;;;;4968681;28;20275;-78
2020/12/06 07:07:43;;;;;;;1999.90;999.90;;;9.80;99.90;;;;;;4953178;28;20666;-78
2020/12/06 07:10:11;;;;;;;1999.90;999.90;;;9.90;99.90;;;;;;4955569;28;20209;-76
2020/12/06 07:12:40;;;;;;;1999.90;999.90;;;9.90;99.90;;;;;;4954041;28;20686;-77
2020/12/06 07:15:09;;;;;;;1999.90;999.90;;;10.00;99.90;;;;;;4953421;28;20221;-79
2020/12/06 07:17:37;;;;;;;1999.90;999.90;;;10.00;99.90;;;;;;4953805;28;20562;-79
2020/12/06 07:20:06;;;;;;;1999.90;999.90;;;10.00;99.90;;;;;;4954088;28;20244;-78
2020/12/06 07:22:33;;;;;;;1999.90;999.90;;;10.10;99.90;;;;;;4954727;28;20221;-78
2020/12/06 07:25:01;;;;;;;1999.90;999.90;;;10.10;99.90;;;;;;4953681;28;20666;-78
2020/12/06 07:27:28;;;;;;;1999.90;999.90;;;10.10;99.90;;;;;;4953500;28;20718;-76
2020/12/06 07:29:54;;;;;;;1999.90;999.90;;;10.10;99.90;;;;;;4953300;28;20725;-78
2020/12/06 07:32:22;;;;;;;1999.90;999.90;;;10.20;99.90;;;;;;4953118;28;20772;-77
2020/12/06 07:34:50;;;;;;;1999.90;999.90;;;10.20;99.90;;;;;;4954689;28;20233;-78
2020/12/06 07:37:18;;;;;;;1999.90;999.90;;;10.20;99.90;;;;;;4953566;28;20209;-79
2020/12/06 07:39:46;;;;;;;1999.90;999.90;;;10.20;99.90;;;;;;4953758;28;20275;-78
2020/12/06 07:42:18;;;;;;;1999.90;999.90;;;10.30;99.90;;;;;;4955622;28;20225;-78
2020/12/06 07:44:49;;;;;;;1999.90;999.90;;;10.40;99.90;;;;;;4956940;28;20212;-78
2020/12/06 07:47:16;;;;;;;1999.90;999.90;;;10.30;99.90;;;;;;4955061;28;20205;-76
2020/12/06 07:49:44;;;;;;;1999.90;999.90;;;10.40;99.90;;;;;;4957076;28;20619;-76
2020/12/06 07:52:16;;;;;;;1999.90;999.90;;;10.40;99.90;;;;;;4955163;28;20229;-82
2020/12/06 07:54:53;;;;;;;1999.90;999.90;;;10.40;99.90;;;;;;4957271;28;20685;-77
2020/12/06 07:57:35;;;;;;;1999.90;999.90;;;10.50;99.90;;;;;;4959414;28;20205;-76
2020/12/06 08:00:05;;;;;;;1999.90;999.90;;;10.60;99.90;;;;;;4959141;28;20205;-78
2020/12/06 08:02:33;;;;;;;1999.90;999.90;;;10.60;99.90;;;;;;4959122;28;20377;-79
2020/12/06 08:05:01;;;;;;;1999.90;999.90;;;10.70;99.90;;;;;;4962618;28;20229;-79
2020/12/06 08:07:35;;;;;;;1999.90;999.90;;;10.70;99.90;;;;;;4969442;28;20210;-78
2020/12/06 08:10:04;;;;;;;1999.90;999.90;;;10.70;99.90;;;;;;4966091;28;20201;-78
2020/12/06 08:12:34;;;;;;;1999.90;999.90;;;10.70;99.90;;;;;;4963945;28;20229;-80
2020/12/06 08:15:03;;;;;;;1999.90;999.90;;;10.70;99.90;;;;;;4961438;28;20276;-80
2020/12/06 08:17:46;;;;;;;1999.90;999.90;;;10.70;99.90;;;;;;4970981;28;20201;-78
2020/12/06 08:20:15;;;;;;;1999.90;999.90;;;10.70;99.90;;;;;;4966417;28;20209;-79
2020/12/06 08:22:50;;;;;;;1999.90;999.90;;;10.80;99.90;;;;;;4961007;28;20260;-78
2020/12/06 08:25:20;;;;;;;1999.90;999.90;;;10.80;99.90;;;;;;4962527;28;20200;-81
2020/12/06 08:27:48;;;;;;;1999.90;999.90;;;10.70;99.90;;;;;;4962219;28;20213;-77
2020/12/06 08:30:16;;;;;;;1999.90;999.90;;;10.70;99.90;;;;;;4965364;28;20220;-78
2020/12/06 08:32:54;;;;;;;1999.90;999.90;;;10.70;99.90;;;;;;4961486;28;20212;-81
2020/12/06 08:35:36;;;;;;;1999.90;999.90;;;10.70;99.90;;;;;;4962022;28;20692;-78
2020/12/06 08:38:14;;;;;;;1999.90;999.90;;;10.80;99.90;;;;;;4960854;28;20205;-77
2020/12/06 08:40:58;;;;;;;1999.90;999.90;;;10.80;99.90;;;;;;4961041;28;20229;-80
2020/12/06 08:43:38;;;;;;;1999.90;999.90;;;10.80;99.90;;;;;;4960852;28;20206;-79
2020/12/06 08:46:06;;;;;;;1999.90;999.90;;;10.80;99.90;;;;;;4967293;28;20229;-78
2020/12/06 08:48:33;;;;;;;1999.90;999.90;;;10.80;99.90;;;;;;4965540;28;20208;-78
2020/12/06 08:51:04;;;;;;;1999.90;999.90;;;10.90;99.90;;;;;;4980997;28;20229;-77
2020/12/06 08:53:43;;;;;;;1999.90;999.90;;;10.90;99.90;;;;;;4993434;28;20205;-79
2020/12/06 08:56:31;;;;;;;1999.90;999.90;;;10.90;99.90;;;;;;4994591;28;20232;-79
2020/12/06 08:59:07;;;;;;;1999.90;999.90;;;11.00;99.90;;;;;;4985574;28;20198;-79
2020/12/06 09:01:45;;;;;;;1999.90;999.90;;;11.00;99.90;;;;;;4975977;29;20237;-80
2020/12/06 09:04:12;;;;;;;1999.90;999.90;;;11.00;99.90;;;;;;4976908;28;20217;-78
2020/12/06 09:06:38;;;;;;;1999.90;999.90;;;11.00;99.90;;;;;;4974257;28;20260;-79
2020/12/06 09:09:06;;;;;;;1999.90;999.90;;;11.00;99.90;;;;;;4995322;28;20236;-79
2020/12/06 09:11:34;;;;;;;1999.90;999.90;;;11.10;99.90;;;;;;4993400;28;20236;-79
2020/12/06 09:14:02;;;;;;;1999.90;999.90;;;11.20;99.90;;;;;;4982704;28;20212;-78
2020/12/06 09:16:29;;;;;;;1999.90;999.90;;;11.20;99.90;;;;;;4980056;28;20271;-79
2020/12/06 09:18:56;;;;;;;1999.90;999.90;;;11.20;99.90;;;;;;4978544;28;20267;-79
2020/12/06 09:21:23;;;;;;;1999.90;999.90;;;11.30;99.90;;;;;;4976858;28;20229;-79
2020/12/06 09:23:50;;;;;;;1999.90;999.90;;;11.20;99.90;;;;;;4978080;28;20204;-78
2020/12/06 09:26:17;;;;;;;1999.90;999.90;;;11.20;99.90;;;;;;4983310;28;20228;-79
2020/12/06 09:28:45;;;;;;;1999.90;999.90;;;11.20;99.90;;;;;;4980363;28;20256;-79
2020/12/06 09:31:12;;;;;;;1999.90;999.90;;;11.30;99.90;;;;;;4980056;28;20220;-80
2020/12/06 09:33:39;;;;;;;1999.90;999.90;;;11.40;99.90;;;;;;4978987;28;20204;-79
2020/12/06 09:36:06;;;;;;;1999.90;999.90;;;11.40;99.90;;;;;;4978742;28;20593;-80
2020/12/06 09:38:32;;;;;;;1999.90;999.90;;;11.50;99.90;;;;;;4975447;28;20670;-79
2020/12/06 09:40:59;;;;;;;1999.90;999.90;;;11.50;99.90;;;;;;4975110;28;20228;-80
2020/12/06 09:43:27;;;;;;;1999.90;999.90;;;11.50;99.90;;;;;;4975778;28;20208;-77
2020/12/06 09:45:55;;;;;;;1999.90;999.90;;;11.50;99.90;;;;;;4974800;28;20283;-80
2020/12/06 09:48:22;;;;;;;1999.90;999.90;;;11.60;99.90;;;;;;4975429;28;20209;-78
2020/12/06 09:50:49;;;;;;;1999.90;999.90;;;11.70;99.90;;;;;;4975487;28;20261;-79
2020/12/06 09:53:15;;;;;;;1999.90;999.90;;;11.70;99.90;;;;;;4974067;28;20256;-77
2020/12/06 09:55:42;;;;;;;1999.90;999.90;;;11.70;99.90;;;;;;4976956;28;20256;-78
2020/12/06 09:58:10;;;;;;;1999.90;999.90;;;11.80;99.90;;;;;;4976603;28;20209;-80
2020/12/06 10:00:37;;;;;;;1999.90;999.90;;;11.90;99.90;;;;;;4975868;28;20228;-78
2020/12/06 10:03:05;;;;;;;1999.90;999.90;;;12.00;99.90;;;;;;4974265;28;20213;-78
2020/12/06 10:05:32;;;;;;;1999.90;999.90;;;12.00;99.90;;;;;;4974979;28;20224;-76
2020/12/06 10:07:58;;;;;;;1999.90;999.90;;;12.10;99.90;;;;;;4962164;28;20256;-76
2020/12/06 10:10:25;;;;;;;1999.90;999.90;;;12.10;99.90;;;;;;4955032;29;20205;-80
2020/12/06 10:12:52;;;;;;;1999.90;999.90;;;12.20;99.90;;;;;;4957075;29;20210;-78
2020/12/06 10:15:19;;;;;;;1999.90;999.90;;;12.20;99.90;;;;;;4956153;29;20225;-78
2020/12/06 10:17:46;;;;;;;1999.90;999.90;;;12.30;99.90;;;;;;4953703;28;20205;-76
2020/12/06 10:20:14;;;;;;;1999.90;999.90;;;12.30;99.90;;;;;;4955109;29;20256;-78
2020/12/06 10:22:41;;;;;;;1999.90;999.90;;;12.30;99.90;;;;;;4954341;29;20201;-78
2020/12/06 10:25:07;;;;;;;1999.90;999.90;;;12.40;99.90;;;;;;4955291;29;20205;-78
2020/12/06 10:27:34;;;;;;;1999.90;999.90;;;12.40;99.90;;;;;;4963931;29;20216;-78
2020/12/06 10:30:02;;;;;;;1999.90;999.90;;;12.40;99.90;;;;;;4958349;29;20205;-78
2020/12/06 10:32:29;;;;;;;1999.90;999.90;;;12.50;99.90;;;;;;4955157;29;20228;-77
2020/12/06 10:34:56;;;;;;;1999.90;999.90;;;12.50;99.90;;;;;;4954564;29;20221;-77
2020/12/06 10:37:24;;;;;;;1999.90;999.90;;;12.60;99.90;;;;;;4955791;29;20217;-80
2020/12/06 10:39:51;;;;;;;1999.90;999.90;;;12.70;99.90;;;;;;4955733;29;20209;-79
2020/12/06 10:42:18;;;;;;;1999.90;999.90;;;12.80;99.90;;;;;;4955965;29;20225;-78
2020/12/06 10:44:45;;;;;;;1999.90;999.90;;;12.90;99.90;;;;;;4955174;29;20204;-78
2020/12/06 10:47:13;;;;;;;1999.90;999.90;;;13.00;99.90;;;;;;4951980;29;21874;-80
2020/12/06 10:49:41;;;;;;;1999.90;999.90;;;13.00;99.90;;;;;;4954350;29;20575;-79
2020/12/06 10:52:09;;;;;;;1999.90;999.90;;;13.10;99.90;;;;;;4954203;29;20317;-78
2020/12/06 10:54:37;;;;;;;1999.90;999.90;;;13.20;99.90;;;;;;4954578;29;20221;-79
2020/12/06 10:57:04;;;;;;;1999.90;999.90;;;13.20;99.90;;;;;;4954381;29;20205;-79
2020/12/06 10:59:31;;;;;;;1999.90;999.90;;;13.20;99.90;;;;;;4954349;29;20312;-78
2020/12/06 11:01:58;;;;;;;1999.90;999.90;;;13.00;99.90;;;;;;4953714;29;20261;-77
2020/12/06 11:04:25;;;;;;;1999.90;999.90;;;13.10;99.90;;;;;;4952966;29;20205;-78
2020/12/06 11:06:52;;;;;;;1999.90;999.90;;;13.00;99.90;;;;;;4954216;29;20206;-78
2020/12/06 11:09:20;;;;;;;1999.90;999.90;;;12.90;99.90;;;;;;4954753;29;20205;-79
2020/12/06 11:11:50;;;;;;;1999.90;999.90;;;12.90;99.90;;;;;;4954495;29;20710;-78
2020/12/06 11:14:17;;;;;;;1999.90;999.90;;;12.90;99.90;;;;;;4953945;29;20227;-78
2020/12/06 11:16:44;;;;;;;1999.90;999.90;;;12.90;99.90;;;;;;4953282;29;20253;-78
2020/12/06 11:19:11;;;;;;;1999.90;999.90;;;13.00;99.90;;;;;;4954930;29;20292;-78
2020/12/06 11:21:37;;;;;;;1999.90;999.90;;;13.10;99.90;;;;;;4954239;29;20221;-78
2020/12/06 11:24:05;;;;;;;1999.90;999.90;;;13.20;99.90;;;;;;4953842;29;20292;-78
2020/12/06 11:26:32;;;;;;;1999.90;999.90;;;13.20;99.90;;;;;;4951823;29;20268;-77
2020/12/06 11:29:00;;;;;;;1999.90;999.90;;;13.20;99.90;;;;;;4954171;28;20205;-78
2020/12/06 11:31:27;;;;;;;1999.90;999.90;;;13.30;99.90;;;;;;4958367;29;20655;-78
2020/12/06 11:33:54;;;;;;;1999.90;999.90;;;13.30;99.90;;;;;;4957555;29;20209;-77
2020/12/06 11:36:21;;;;;;;1999.90;999.90;;;13.40;99.90;;;;;;4957221;29;20233;-79
2020/12/06 11:38:48;;;;;;;1999.90;999.90;;;13.40;99.90;;;;;;4957664;29;20210;-77
2020/12/06 11:41:15;;;;;;;1999.90;999.90;;;13.40;99.90;;;;;;4957556;29;20296;-77
2020/12/06 11:43:42;;;;;;;1999.90;999.90;;;13.40;99.90;;;;;;4957728;29;20615;-78
2020/12/06 11:46:11;;;;;;;1999.90;999.90;;;13.40;99.90;;;;;;4958058;29;20210;-78
2020/12/06 11:48:38;;;;;;;1999.90;999.90;;;13.30;99.90;;;;;;4958547;29;20205;-79
2020/12/06 11:51:04;;;;;;;1999.90;999.90;;;13.30;99.90;;;;;;4958260;29;20284;-80
2020/12/06 11:53:31;;;;;;;1999.90;999.90;;;13.30;99.90;;;;;;4973768;28;20623;-80
2020/12/06 11:55:58;;;;;;;1999.90;999.90;;;13.30;99.90;;;;;;4976683;28;20225;-80
2020/12/06 11:58:25;;;;;;;1999.90;999.90;;;13.40;99.90;;;;;;4976591;28;20655;-80
2020/12/06 12:00:52;;;;;;;1999.90;999.90;;;13.40;99.90;;;;;;4976803;28;20236;-80
2020/12/06 12:03:20;;;;;;;1999.90;999.90;;;13.40;99.90;;;;;;4978311;28;20562;-81
2020/12/06 12:05:47;;;;;;;1999.90;999.90;;;13.40;99.90;;;;;;4978591;28;20224;-82
2020/12/06 12:08:14;;;;;;;1999.90;999.90;;;13.40;99.90;;;;;;4977793;28;20577;-81
2020/12/06 12:10:41;;;;;;;1999.90;999.90;;;13.40;99.90;;;;;;4977662;28;20220;-80
2020/12/06 12:13:08;;;;;;;1999.90;999.90;;;13.40;99.90;;;;;;4977353;28;20201;-81
2020/12/06 12:15:35;;;;;;;1999.90;999.90;;;13.40;99.90;;;;;;4969989;28;20636;-80
2020/12/06 12:18:02;;;;;;;1999.90;999.90;;;13.40;99.90;;;;;;4975232;28;20677;-79
2020/12/06 12:20:29;;;;;;;1999.90;999.90;;;13.30;99.90;;;;;;4978286;28;20209;-79
2020/12/06 12:22:56;;;;;;;1999.90;999.90;;;13.20;99.90;;;;;;4978647;28;20193;-80
2020/12/06 12:25:24;;;;;;;1999.90;999.90;;;13.20;99.90;;;;;;4976878;28;20197;-78
2020/12/06 12:27:51;;;;;;;1999.90;999.90;;;13.20;99.90;;;;;;4976491;28;20204;-78
2020/12/06 12:30:18;;;;;;;1999.90;999.90;;;13.10;99.90;;;;;;4977974;28;20633;-79
2020/12/06 12:32:45;;;;;;;1999.90;999.90;;;13.90;99.90;;;;;;4980143;28;20205;-79
2020/12/06 12:35:11;;;;;;;1999.90;999.90;;;13.10;99.90;;;;;;4980083;28;20224;-79
2020/12/06 12:37:39;;;;;;;1999.90;999.90;;;13.10;99.90;;;;;;4980028;28;20217;-80
2020/12/06 12:40:06;;;;;;;1999.90;999.90;;;13.00;99.90;;;;;;4959664;28;20375;-78
2020/12/06 12:42:33;;;;;;;1999.90;999.90;;;13.00;99.90;;;;;;4961627;29;20257;-78
2020/12/06 12:45:00;;;;;;;1999.90;999.90;;;13.10;99.90;;;;;;4960975;29;20264;-81
2020/12/06 12:47:27;;;;;;;1999.90;999.90;;;13.00;99.90;;;;;;4949212;29;20209;-81
2020/12/06 12:49:55;;;;;;;1999.90;999.90;;;12.90;99.90;;;;;;4938480;29;20202;-80
2020/12/06 12:52:22;;;;;;;1999.90;999.90;;;13.00;99.90;;;;;;4939028;29;20232;-81
2020/12/06 12:54:50;;;;;;;1999.90;999.90;;;12.90;99.90;;;;;;4937203;29;20205;-81
2020/12/06 12:57:17;;;;;;;1999.90;999.90;;;12.90;99.90;;;;;;4937311;29;20210;-80
2020/12/06 12:59:44;;;;;;;1999.90;999.90;;;12.90;99.90;;;;;;4937087;29;20213;-80
2020/12/06 13:02:10;;;;;;;1999.90;999.90;;;12.80;99.90;;;;;;4936714;29;20237;-80
2020/12/06 13:04:37;;;;;;;1999.90;999.90;;;12.80;99.90;;;;;;4937932;29;20264;-80
2020/12/06 13:07:05;;;;;;;1999.90;999.90;;;12.90;99.90;;;;;;4939076;29;20273;-80
2020/12/06 13:09:32;;;;;;;1999.90;999.90;;;13.00;99.90;;;;;;4959201;29;20225;-81
2020/12/06 13:12:00;;;;;;;1999.90;999.90;;;12.90;99.90;;;;;;4959254;29;20669;-80
2020/12/06 13:14:28;;;;;;;1999.90;999.90;;;12.90;99.90;;;;;;4956246;29;20197;-78
2020/12/06 13:16:56;;;;;;;1999.90;999.90;;;12.90;99.90;;;;;;4955330;29;20218;-79
2020/12/06 13:19:23;;;;;;;1999.90;999.90;;;12.90;99.90;;;;;;4948996;29;20201;-80
2020/12/06 13:21:54;;;;;;;1999.90;999.90;;;12.90;99.90;;;;;;4955854;29;20238;-78
2020/12/06 13:24:21;;;;;;;1999.90;999.90;;;12.90;99.90;;;;;;4955938;29;20686;-79
2020/12/06 13:26:52;;;;;;;1999.90;999.90;;;12.90;99.90;;;;;;4952308;29;20668;-80
2020/12/06 13:29:19;;;;;;;1999.90;999.90;;;12.90;99.90;;;;;;4951995;29;20198;-78
2020/12/06 13:31:50;;;;;;;1999.90;999.90;;;12.80;99.90;;;;;;4953926;29;20644;-79
2020/12/06 13:34:17;;;;;;;1999.90;999.90;;;12.80;99.90;;;;;;4952284;29;20611;-78
2020/12/06 13:36:44;;;;;;;1999.90;999.90;;;12.80;99.90;;;;;;4954987;29;20217;-79
2020/12/06 13:39:11;;;;;;;1999.90;999.90;;;12.80;99.90;;;;;;4954346;29;20246;-79
2020/12/06 13:41:37;;;;;;;1999.90;999.90;;;12.80;99.90;;;;;;4952785;28;20249;-78
2020/12/06 13:44:13;;;;;;;1999.90;999.90;;;12.80;99.90;;;;;;4954002;29;20193;-78
2020/12/06 13:46:41;;;;;;;1999.90;999.90;;;12.80;99.90;;;;;;4953714;29;20289;-77
2020/12/06 13:49:08;;;;;;;1999.90;999.90;;;12.80;99.90;;;;;;4954005;29;20205;-78
2020/12/06 13:51:36;;;;;;;1999.90;999.90;;;12.80;99.90;;;;;;4957553;28;20240;-78
2020/12/06 13:54:03;;;;;;;1999.90;999.90;;;12.70;99.90;;;;;;4955013;28;20189;-76
2020/12/06 13:56:30;;;;;;;1999.90;999.90;;;12.70;99.90;;;;;;4954628;28;20243;-78
2020/12/06 13:58:57;;;;;;;1999.90;999.90;;;12.80;99.90;;;;;;4955344;29;20205;-78
2020/12/06 14:01:24;;;;;;;1999.90;999.90;;;12.90;99.90;;;;;;4954897;29;20283;-77
2020/12/06 14:03:51;;;;;;;1999.90;999.90;;;12.90;99.90;;;;;;4953969;29;20360;-77
2020/12/06 14:06:19;;;;;;;1999.90;999.90;;;12.90;99.90;;;;;;4954205;29;20198;-78
2020/12/06 14:08:45;;;;;;;1999.90;999.90;;;12.90;99.90;;;;;;4953579;29;20202;-78
2020/12/06 14:11:12;;;;;;;1999.90;999.90;;;12.90;99.90;;;;;;4953532;29;20448;-77
2020/12/06 14:13:39;;;;;;;1999.90;999.90;;;12.80;99.90;;;;;;4954914;29;20209;-78
2020/12/06 14:16:06;;;;;;;1999.90;999.90;;;12.90;99.90;;;;;;4958039;29;20268;-79
2020/12/06 14:18:33;;;;;;;1999.90;999.90;;;12.90;99.90;;;;;;4959371;29;20233;-79
2020/12/06 14:21:01;;;;;;;1999.90;999.90;;;12.90;99.90;;;;;;4960512;29;20229;-78
2020/12/06 14:23:28;;;;;;;1999.90;999.90;;;12.90;99.90;;;;;;4961297;29;20197;-79
2020/12/06 14:25:55;;;;;;;1999.90;999.90;;;12.90;99.90;;;;;;4959457;29;20253;-81
2020/12/06 14:28:21;;;;;;;1999.90;999.90;;;12.90;99.90;;;;;;4963538;29;20205;-78
2020/12/06 14:30:49;;;;;;;1999.90;999.90;;;12.90;99.90;;;;;;4962802;29;20264;-79
2020/12/06 14:33:21;;;;;;;1999.90;999.90;;;12.90;99.90;;;;;;4956594;29;20201;-78
2020/12/06 14:35:49;;;;;;;1999.90;999.90;;;12.90;99.90;;;;;;4954846;29;20229;-78
2020/12/06 14:38:16;;;;;;;1999.90;999.90;;;12.90;99.90;;;;;;4955037;29;20259;-79
2020/12/06 14:40:43;;;;;;;1999.90;999.90;;;12.90;99.90;;;;;;4955623;29;20221;-79
2020/12/06 14:43:10;;;;;;;1999.90;999.90;;;12.90;99.90;;;;;;4957918;29;20288;-78
2020/12/06 14:45:37;;;;;;;1999.90;999.90;;;12.90;99.90;;;;;;4959415;29;20256;-77
2020/12/06 14:48:05;;;;;;;1999.90;999.90;;;12.90;99.90;;;;;;4956575;29;20212;-80
2020/12/06 14:50:32;;;;;;;1999.90;999.90;;;12.90;99.90;;;;;;4956418;29;20229;-79
2020/12/06 14:52:59;;;;;;;1999.90;999.90;;;12.90;99.90;;;;;;4957870;29;20209;-77
2020/12/06 14:55:27;;;;;;;1999.90;999.90;;;12.80;99.90;;;;;;4955624;29;20228;-79
2020/12/06 14:57:54;;;;;;;1999.90;999.90;;;12.90;99.90;;;;;;4955311;29;20205;-78
2020/12/06 15:00:21;;;;;;;1999.90;999.90;;;12.80;99.90;;;;;;4955292;29;20205;-79
2020/12/06 15:02:48;;;;;;;1999.90;999.90;;;12.90;99.90;;;;;;4951845;29;20911;-78
2020/12/06 15:05:15;;;;;;;1999.90;999.90;;;12.80;99.90;;;;;;4948219;29;20265;-81
2020/12/06 15:07:42;;;;;;;1999.90;999.90;;;12.70;99.90;;;;;;4957399;29;20193;-80
2020/12/06 15:10:11;;;;;;;1999.90;999.90;;;12.70;99.90;;;;;;4957954;29;20254;-79
2020/12/06 15:12:39;;;;;;;1999.90;999.90;;;12.60;99.90;;;;;;4955982;29;20201;-79
2020/12/06 15:15:06;;;;;;;1999.90;999.90;;;12.50;99.90;;;;;;4958561;28;20208;-79
2020/12/06 15:17:33;;;;;;;1999.90;999.90;;;12.40;99.90;;;;;;4957572;28;20201;-78
2020/12/06 15:20:00;;;;;;;1999.90;999.90;;;12.30;99.90;;;;;;4954834;29;20284;-78
2020/12/06 15:22:27;;;;;;;1999.90;999.90;;;12.30;99.90;;;;;;4954574;29;20217;-78
2020/12/06 15:24:53;;;;;;;1999.90;999.90;;;12.30;99.90;;;;;;4954178;29;20280;-79
2020/12/06 15:27:20;;;;;;;1999.90;999.90;;;12.20;99.90;;;;;;4954750;29;20693;-79
2020/12/06 15:29:48;;;;;;;1999.90;999.90;;;12.20;99.90;;;;;;4954968;29;20229;-79
2020/12/06 15:32:15;;;;;;;1999.90;999.90;;;12.20;99.90;;;;;;4954523;29;20229;-78
2020/12/06 15:34:44;;;;;;;1999.90;999.90;;;12.30;99.90;;;;;;4955175;29;20671;-80
2020/12/06 15:37:11;;;;;;;1999.90;999.90;;;12.30;99.90;;;;;;4956243;29;20217;-79
2020/12/06 15:39:38;;;;;;;1999.90;999.90;;;12.30;99.90;;;;;;4956642;29;20209;-79
2020/12/06 15:42:05;;;;;;;1999.90;999.90;;;12.40;99.90;;;;;;4957189;29;20224;-80
2020/12/06 15:44:36;;;;;;;1999.90;999.90;;;12.40;99.90;;;;;;4956147;29;20582;-79
2020/12/06 15:47:04;;;;;;;1999.90;999.90;;;12.40;99.90;;;;;;4955637;29;20260;-79
2020/12/06 15:49:30;;;;;;;1999.90;999.90;;;12.40;99.90;;;;;;4955291;29;20221;-78
2020/12/06 15:51:57;;;;;;;1999.90;999.90;;;12.40;99.90;;;;;;4955813;29;20288;-79
2020/12/06 15:54:24;;;;;;;1999.90;999.90;;;12.40;99.90;;;;;;4955121;29;20662;-78
2020/12/06 15:56:51;;;;;;;1999.90;999.90;;;12.40;99.90;;;;;;4954187;29;20225;-78
2020/12/06 15:59:18;;;;;;;1999.90;999.90;;;12.30;99.90;;;;;;4954871;29;20726;-79
2020/12/06 16:01:45;;;;;;;1999.90;999.90;;;12.40;99.90;;;;;;4954514;29;20265;-79
2020/12/06 16:04:13;;;;;;;1999.90;999.90;;;12.30;99.90;;;;;;4955371;29;20288;-79
2020/12/06 16:06:40;;;;;;;1999.90;999.90;;;12.30;99.90;;;;;;4955411;29;20221;-79
2020/12/06 16:09:06;;;;;;;1999.90;999.90;;;12.40;99.90;;;;;;4956461;29;20257;-79
2020/12/06 16:11:33;;;;;;;1999.90;999.90;;;12.30;99.90;;;;;;4955626;29;20226;-78
2020/12/06 16:14:02;;;;;;;1999.90;999.90;;;12.30;99.90;;;;;;4956042;29;20205;-79
2020/12/06 16:16:28;;;;;;;1999.90;999.90;;;12.20;99.90;;;;;;4958119;28;20274;-78
2020/12/06 16:18:56;;;;;;;1999.90;999.90;;;12.20;99.90;;;;;;4958573;29;20209;-78
2020/12/06 16:21:26;;;;;;;1999.90;999.90;;;12.20;99.90;;;;;;4959018;29;20288;-79
2020/12/06 16:23:53;;;;;;;1999.90;999.90;;;12.20;99.90;;;;;;4959287;29;20793;-79
2020/12/06 16:26:21;;;;;;;1999.90;999.90;;;12.20;99.90;;;;;;4959243;29;20213;-79
2020/12/06 16:28:48;;;;;;;1999.90;999.90;;;12.10;99.90;;;;;;4958977;29;20209;-79
2020/12/06 16:31:15;;;;;;;1999.90;999.90;;;12.10;99.90;;;;;;4959073;29;20261;-78
2020/12/06 16:33:41;;;;;;;1999.90;999.90;;;12.20;99.90;;;;;;4959383;29;20265;-78
2020/12/06 16:36:10;;;;;;;1999.90;999.90;;;12.10;99.90;;;;;;4958069;29;20228;-80
2020/12/06 16:38:37;;;;;;;1999.90;999.90;;;12.10;99.90;;;;;;4957869;29;20214;-78
2020/12/06 16:41:04;;;;;;;1999.90;999.90;;;12.10;99.90;;;;;;4958078;29;20719;-79
2020/12/06 16:43:31;;;;;;;1999.90;999.90;;;12.00;99.90;;;;;;4955483;29;20714;-79
2020/12/06 16:45:58;;;;;;;1999.90;999.90;;;12.00;99.90;;;;;;4954715;29;20238;-81
2020/12/06 16:48:25;;;;;;;1999.90;999.90;;;11.90;99.90;;;;;;4953507;29;20205;-78
2020/12/06 16:50:51;;;;;;;1999.90;999.90;;;11.90;99.90;;;;;;4954542;29;20232;-79
2020/12/06 16:53:37;;;;;;;1999.90;999.90;;;11.90;99.90;;;;;;4954568;29;20216;-79
2020/12/06 16:56:04;;;;;;;1999.90;999.90;;;11.80;99.90;;;;;;4954395;29;20225;-78
2020/12/06 16:58:30;;;;;;;1999.90;999.90;;;11.80;99.90;;;;;;4955400;29;20268;-78
2020/12/06 17:00:57;;;;;;;1999.90;999.90;;;11.70;99.90;;;;;;4956876;29;20276;-80
2020/12/06 17:03:24;;;;;;;1999.90;999.90;;;11.60;99.90;;;;;;4957109;29;20206;-77
2020/12/06 17:05:52;;;;;;;1999.90;999.90;;;11.50;99.90;;;;;;4957004;29;20260;-79
2020/12/06 17:08:20;;;;;;;1999.90;999.90;;;11.50;99.90;;;;;;4957606;29;20649;-78
2020/12/06 17:10:48;;;;;;;1999.90;999.90;;;11.50;99.90;;;;;;4956493;29;20225;-78
2020/12/06 17:13:15;;;;;;;1999.90;999.90;;;11.50;99.90;;;;;;4957132;29;20212;-78
2020/12/06 17:15:42;;;;;;;1999.90;999.90;;;11.40;99.90;;;;;;4957007;29;20202;-79
2020/12/06 17:18:08;;;;;;;1999.90;999.90;;;11.40;99.90;;;;;;4956572;29;20256;-77
2020/12/06 17:20:35;;;;;;;1999.90;999.90;;;11.30;99.90;;;;;;4956888;29;20229;-79
2020/12/06 17:23:02;;;;;;;1999.90;999.90;;;11.30;99.90;;;;;;4955857;29;20205;-78
2020/12/06 17:25:29;;;;;;;1999.90;999.90;;;11.20;99.90;;;;;;4956282;29;20268;-79
2020/12/06 17:30:44;;;;;;;1999.90;999.90;;;11.10;99.90;;;;;;4893764;29;20227;-77
2020/12/06 17:33:11;;;;;;;1999.90;999.90;;;11.10;99.90;;;;;;4898459;29;20207;-77
2020/12/06 17:35:37;;;;;;;1999.90;999.90;;;11.10;99.90;;;;;;4898176;29;20608;-77
2020/12/06 17:38:04;;;;;;;1999.90;999.90;;;11.10;99.90;;;;;;4899330;29;20263;-82
2020/12/06 17:40:31;;;;;;;1999.90;999.90;;;11.10;99.90;;;;;;4918254;29;20719;-78
2020/12/06 17:42:58;;;;;;;1999.90;999.90;;;11.10;99.90;;;;;;4912095;29;20210;-77
2020/12/06 17:45:25;;;;;;;1999.90;999.90;;;11.10;99.90;;;;;;4917215;29;20544;-78
2020/12/06 17:47:53;;;;;;;1999.90;999.90;;;11.10;99.90;;;;;;4915458;29;20637;-77
2020/12/06 17:50:20;;;;;;;1999.90;999.90;;;11.10;99.90;;;;;;4916965;29;20234;-77
2020/12/06 17:52:46;;;;;;;1999.90;999.90;;;11.10;99.90;;;;;;4921942;29;20250;-77
2020/12/06 17:55:13;;;;;;;1999.90;999.90;;;11.10;99.90;;;;;;4926749;29;20210;-77
2020/12/06 17:57:40;;;;;;;1999.90;999.90;;;11.10;99.90;;;;;;4927175;29;20651;-77
2020/12/06 18:00:07;;;;;;;1999.90;999.90;;;11.10;99.90;;;;;;4930285;29;20663;-77
2020/12/06 18:02:34;;;;;;;1999.90;999.90;;;11.20;99.90;;;;;;4934069;29;20211;-77
2020/12/06 18:05:03;;;;;;;1999.90;999.90;;;11.20;99.90;;;;;;4932881;29;20234;-80
2020/12/06 18:07:30;;;;;;;1999.90;999.90;;;11.20;99.90;;;;;;4932320;29;20239;-77
2020/12/06 18:09:57;;;;;;;1999.90;999.90;;;11.20;99.90;;;;;;4932889;29;20451;-76